Data Viewer
| City | State | Eastern Time | Source | Temp | DewPt | RH | BP | 5 Min Precip | Wind Speed | Wind Dir | 5 Min Wind Max | 5 Min Wind Max Dir |
|---|---|---|---|---|---|---|---|---|---|---|---|---|
| Piscataway 1 | NJ | 2026-05-04 05:15 | NJDOT | 45 | 31 | 58 | 0 | |||||
| Piscataway 1 | NJ | 2026-05-04 21:35 | NJDOT | 65 | 40 | 40 | 7 | |||||
| Piscataway 1 | NJ | 2026-05-04 20:30 | NJDOT | 68 | 39 | 34 | 7 | |||||
| Piscataway 1 | NJ | 2026-05-04 20:35 | NJDOT | 68 | 39 | 34 | 6 | |||||
| Piscataway 1 | NJ | 2026-05-04 20:40 | NJDOT | 68 | 39 | 35 | 8 | |||||
| Piscataway 1 | NJ | 2026-05-04 20:45 | NJDOT | 68 | 39 | 35 | 8 | |||||
| Piscataway 1 | NJ | 2026-05-04 20:50 | NJDOT | 67 | 39 | 35 | 8 | |||||
| Piscataway 1 | NJ | 2026-05-04 21:00 | NJDOT | 67 | 39 | 36 | 6 | |||||
| Piscataway 1 | NJ | 2026-05-04 21:05 | NJDOT | 67 | 39 | 36 | 3 | |||||
| Piscataway 1 | NJ | 2026-05-04 21:10 | NJDOT | 67 | 40 | 37 | 2 | |||||
| Piscataway 1 | NJ | 2026-05-04 21:15 | NJDOT | 66 | 40 | 38 | 2 | |||||
| Piscataway 1 | NJ | 2026-05-04 21:20 | NJDOT | 66 | 40 | 38 | 2 | |||||
| Piscataway 1 | NJ | 2026-05-04 21:25 | NJDOT | 66 | 41 | 40 | 4 | |||||
| Piscataway 1 | NJ | 2026-05-04 21:30 | NJDOT | 66 | 40 | 38 | 7 | |||||
| Piscataway 1 | NJ | 2026-05-04 21:40 | NJDOT | 65 | 40 | 40 | 3 | |||||
| Piscataway 1 | NJ | 2026-05-04 20:20 | NJDOT | 68 | 39 | 34 | 9 | |||||
| Piscataway 1 | NJ | 2026-05-04 21:45 | NJDOT | 65 | 41 | 41 | 6 | |||||
| Piscataway 1 | NJ | 2026-05-04 21:50 | NJDOT | 65 | 42 | 42 | 6 | |||||
| Piscataway 1 | NJ | 2026-05-04 22:00 | NJDOT | 64 | 42 | 45 | 11 | |||||
| Piscataway 1 | NJ | 2026-05-04 22:05 | NJDOT | 64 | 43 | 46 | 8 | |||||
| Piscataway 1 | NJ | 2026-05-04 22:10 | NJDOT | 64 | 43 | 46 | 8 | |||||
| Piscataway 1 | NJ | 2026-05-04 22:15 | NJDOT | 64 | 43 | 46 | 7 | |||||
| Piscataway 1 | NJ | 2026-05-04 22:20 | NJDOT | 64 | 43 | 47 | 7 | |||||
| Piscataway 1 | NJ | 2026-05-04 22:25 | NJDOT | 64 | 44 | 48 | 6 | |||||
| Piscataway 1 | NJ | 2026-05-04 22:30 | NJDOT | 63 | 44 | 48 | 5 | |||||
| Piscataway 1 | NJ | 2026-05-04 22:35 | NJDOT | 63 | 44 | 48 | 6 | |||||
| Piscataway 1 | NJ | 2026-05-04 22:40 | NJDOT | 63 | 44 | 49 | 7 | |||||
| Piscataway 1 | NJ | 2026-05-04 22:45 | NJDOT | 63 | 44 | 50 | 7 | |||||
| Piscataway 1 | NJ | 2026-05-04 22:50 | NJDOT | 63 | 44 | 51 | 6 | |||||
| Piscataway 1 | NJ | 2026-05-04 20:25 | NJDOT | 68 | 38 | 34 | 9 | |||||
| Piscataway 1 | NJ | 2026-05-04 20:15 | NJDOT | 68 | 39 | 34 | 7 | |||||
| Piscataway 1 | NJ | 2026-05-04 23:05 | NJDOT | 62 | 45 | 53 | 4 | |||||
| Piscataway 1 | NJ | 2026-05-04 18:35 | NJDOT | 72 | 37 | 28 | 11 | |||||
| Piscataway 1 | NJ | 2026-05-04 17:25 | NJDOT | 74 | 37 | 26 | 12 | |||||
| Piscataway 1 | NJ | 2026-05-04 17:30 | NJDOT | 74 | 40 | 28 | 12 | |||||
| Piscataway 1 | NJ | 2026-05-04 17:35 | NJDOT | 74 | 38 | 26 | 11 | |||||
| Piscataway 1 | NJ | 2026-05-04 17:40 | NJDOT | 74 | 37 | 26 | 13 | |||||
| Piscataway 1 | NJ | 2026-05-04 17:45 | NJDOT | 74 | 37 | 26 | 13 | |||||
| Piscataway 1 | NJ | 2026-05-04 17:50 | NJDOT | 73 | 38 | 27 | 11 | |||||
| Piscataway 1 | NJ | 2026-05-04 18:00 | NJDOT | 73 | 38 | 27 | 11 | |||||
| Piscataway 1 | NJ | 2026-05-04 18:05 | NJDOT | 73 | 38 | 27 | 11 | |||||
| Piscataway 1 | NJ | 2026-05-04 18:10 | NJDOT | 73 | 38 | 27 | 13 | |||||
| Piscataway 1 | NJ | 2026-05-04 18:15 | NJDOT | 73 | 38 | 27 | 13 | |||||
| Piscataway 1 | NJ | 2026-05-04 18:20 | NJDOT | 73 | 38 | 27 | 10 | |||||
| Piscataway 1 | NJ | 2026-05-04 18:25 | NJDOT | 72 | 38 | 28 | 10 | |||||
| Piscataway 1 | NJ | 2026-05-04 18:30 | NJDOT | 72 | 37 | 27 | 11 | |||||
| Piscataway 1 | NJ | 2026-05-04 18:40 | NJDOT | 72 | 38 | 29 | 12 | |||||
| Piscataway 1 | NJ | 2026-05-04 20:10 | NJDOT | 68 | 39 | 33 | 4 | |||||
| Piscataway 1 | NJ | 2026-05-04 19:00 | NJDOT | 71 | 37 | 29 | 11 | |||||
| Piscataway 1 | NJ | 2026-05-04 19:05 | NJDOT | 71 | 37 | 29 | 11 | |||||
| Piscataway 1 | NJ | 2026-05-04 19:10 | NJDOT | 71 | 38 | 30 | 14 | |||||
| Piscataway 1 | NJ | 2026-05-04 19:15 | NJDOT | 71 | 37 | 29 | 14 | |||||
| Piscataway 1 | NJ | 2026-05-04 19:20 | NJDOT | 71 | 38 | 29 | 11 | |||||
| Piscataway 1 | NJ | 2026-05-04 19:25 | NJDOT | 71 | 38 | 30 | 11 | |||||
| Piscataway 1 | NJ | 2026-05-04 19:30 | NJDOT | 70 | 38 | 30 | 11 | |||||
| Piscataway 1 | NJ | 2026-05-04 19:35 | NJDOT | 70 | 38 | 31 | 11 | |||||
| Piscataway 1 | NJ | 2026-05-04 19:40 | NJDOT | 70 | 37 | 30 | 9 | |||||
| Piscataway 1 | NJ | 2026-05-04 19:45 | NJDOT | 70 | 38 | 31 | 9 | |||||
| Piscataway 1 | NJ | 2026-05-04 19:50 | NJDOT | 70 | 39 | 32 | 12 | |||||
| Piscataway 1 | NJ | 2026-05-04 20:00 | NJDOT | 69 | 38 | 33 | 6 | |||||
| Piscataway 1 | NJ | 2026-05-04 20:05 | NJDOT | 69 | 38 | 33 | 6 | |||||
| Piscataway 1 | NJ | 2026-05-04 23:00 | NJDOT | 62 | 45 | 52 | 4 | |||||
| Piscataway 1 | NJ | 2026-05-04 23:10 | NJDOT | 62 | 45 | 53 | 5 | |||||
| Piscataway 1 | NJ | 2026-05-04 17:15 | NJDOT | 72 | 37 | 27 | 13 | |||||
| Piscataway 1 | NJ | 2026-05-05 03:45 | NJDOT | 55 | 48 | 79 | 0 | |||||
| Piscataway 1 | NJ | 2026-05-05 02:35 | NJDOT | 59 | 48 | 67 | 2 | |||||
| Piscataway 1 | NJ | 2026-05-05 02:40 | NJDOT | 59 | 48 | 67 | 2 | |||||
| Piscataway 1 | NJ | 2026-05-05 02:45 | NJDOT | 58 | 48 | 68 | 1 | |||||
| Piscataway 1 | NJ | 2026-05-05 02:50 | NJDOT | 58 | 48 | 69 | 0 | |||||
| Piscataway 1 | NJ | 2026-05-05 03:00 | NJDOT | 58 | 48 | 70 | 0 | |||||
| Piscataway 1 | NJ | 2026-05-05 03:05 | NJDOT | 58 | 48 | 71 | 0 | |||||
| Piscataway 1 | NJ | 2026-05-05 03:10 | NJDOT | 57 | 48 | 71 | 0 | |||||
| Piscataway 1 | NJ | 2026-05-05 03:15 | NJDOT | 57 | 48 | 72 | 0 | |||||
| Piscataway 1 | NJ | 2026-05-05 03:20 | NJDOT | 57 | 48 | 73 | 0 | |||||
| Piscataway 1 | NJ | 2026-05-05 03:25 | NJDOT | 56 | 48 | 74 | 0 | |||||
| Piscataway 1 | NJ | 2026-05-05 03:35 | NJDOT | 56 | 49 | 76 | 0 | |||||
| Piscataway 1 | NJ | 2026-05-05 03:40 | NJDOT | 55 | 48 | 77 | 0 | |||||
| Piscataway 1 | NJ | 2026-05-05 03:50 | NJDOT | 54 | 49 | 80 | 0 | |||||
| Piscataway 1 | NJ | 2026-05-05 02:25 | NJDOT | 59 | 48 | 66 | 2 | |||||
| Piscataway 1 | NJ | 2026-05-05 04:00 | NJDOT | 53 | 48 | 83 | 0 | |||||
| Piscataway 1 | NJ | 2026-05-05 04:05 | NJDOT | 54 | 49 | 83 | 0 | |||||
| Piscataway 1 | NJ | 2026-05-05 04:10 | NJDOT | 54 | 49 | 83 | 0 | |||||
| Piscataway 1 | NJ | 2026-05-05 04:15 | NJDOT | 54 | 49 | 83 | 0 | |||||
| Piscataway 1 | NJ | 2026-05-05 04:20 | NJDOT | 54 | 49 | 83 | 0 | |||||
| Piscataway 1 | NJ | 2026-05-05 04:25 | NJDOT | 54 | 49 | 83 | 0 | |||||
| Piscataway 1 | NJ | 2026-05-05 04:30 | NJDOT | 54 | 49 | 82 | 0 | |||||
| Piscataway 1 | NJ | 2026-05-05 04:35 | NJDOT | 55 | 49 | 82 | 0 | |||||
| Piscataway 1 | NJ | 2026-05-05 04:40 | NJDOT | 56 | 50 | 80 | 6 | |||||
| Piscataway 1 | NJ | 2026-05-05 04:45 | NJDOT | 56 | 50 | 81 | 6 | |||||
| Piscataway 1 | NJ | 2026-05-05 04:50 | NJDOT | 56 | 50 | 80 | 0 | |||||
| Piscataway 1 | NJ | 2026-05-05 05:00 | NJDOT | 57 | 50 | 77 | 0 | |||||
| Piscataway 1 | NJ | 2026-05-05 05:05 | NJDOT | 57 | 50 | 76 | 0 | |||||
| Piscataway 1 | NJ | 2026-05-05 02:30 | NJDOT | 59 | 48 | 67 | 0 | |||||
| Piscataway 1 | NJ | 2026-05-05 02:20 | NJDOT | 59 | 48 | 66 | 4 | |||||
| Piscataway 1 | NJ | 2026-05-04 23:15 | NJDOT | 62 | 45 | 54 | 5 | |||||
| Piscataway 1 | NJ | 2026-05-05 00:30 | NJDOT | 61 | 47 | 60 | 6 | |||||
| Piscataway 1 | NJ | 2026-05-04 23:20 | NJDOT | 62 | 45 | 55 | 4 | |||||
| Piscataway 1 | NJ | 2026-05-04 23:25 | NJDOT | 62 | 46 | 55 | 7 | |||||
| Piscataway 1 | NJ | 2026-05-04 23:30 | NJDOT | 62 | 46 | 56 | 7 | |||||
| Piscataway 1 | NJ | 2026-05-04 23:35 | NJDOT | 61 | 46 | 56 | 4 | |||||
| Piscataway 1 | NJ | 2026-05-04 23:40 | NJDOT | 61 | 46 | 57 | 7 | |||||
| Piscataway 1 | NJ | 2026-05-04 23:45 | NJDOT | 61 | 46 | 57 | 7 | |||||
| Piscataway 1 | NJ | 2026-05-04 23:50 | NJDOT | 61 | 46 | 57 | 6 | |||||
| Piscataway 1 | NJ | 2026-05-05 00:00 | NJDOT | 61 | 46 | 57 | 7 | |||||
| Piscataway 1 | NJ | 2026-05-05 00:05 | NJDOT | 61 | 46 | 57 | 6 | |||||
| Piscataway 1 | NJ | 2026-05-05 00:10 | NJDOT | 61 | 47 | 58 | 6 | |||||
| Piscataway 1 | NJ | 2026-05-05 00:15 | NJDOT | 61 | 47 | 58 | 6 | |||||
| Piscataway 1 | NJ | 2026-05-05 00:20 | NJDOT | 61 | 47 | 59 | 9 | |||||
| Piscataway 1 | NJ | 2026-05-05 00:25 | NJDOT | 61 | 47 | 59 | 9 | |||||
| Piscataway 1 | NJ | 2026-05-05 01:00 | NJDOT | 60 | 47 | 61 | 8 | |||||
| Piscataway 1 | NJ | 2026-05-05 02:15 | NJDOT | 59 | 48 | 65 | 6 | |||||
| Piscataway 1 | NJ | 2026-05-05 01:05 | NJDOT | 60 | 47 | 62 | 8 | |||||
| Piscataway 1 | NJ | 2026-05-05 01:10 | NJDOT | 60 | 47 | 62 | 1 | |||||
| Piscataway 1 | NJ | 2026-05-05 01:15 | NJDOT | 60 | 47 | 62 | 3 | |||||
| Piscataway 1 | NJ | 2026-05-05 01:20 | NJDOT | 60 | 47 | 63 | 3 | |||||
| Piscataway 1 | NJ | 2026-05-05 01:25 | NJDOT | 60 | 47 | 63 | 6 | |||||
| Piscataway 1 | NJ | 2026-05-05 01:30 | NJDOT | 60 | 47 | 63 | 6 | |||||
| Piscataway 1 | NJ | 2026-05-05 01:35 | NJDOT | 60 | 47 | 63 | 6 | |||||
| Piscataway 1 | NJ | 2026-05-05 01:40 | NJDOT | 60 | 47 | 64 | 6 | |||||
| Piscataway 1 | NJ | 2026-05-05 01:45 | NJDOT | 60 | 47 | 64 | 5 | |||||
| Piscataway 1 | NJ | 2026-05-05 01:50 | NJDOT | 59 | 47 | 65 | 5 | |||||
| Piscataway 1 | NJ | 2026-05-05 02:00 | NJDOT | 59 | 48 | 65 | 5 | |||||
| Piscataway 1 | NJ | 2026-05-05 02:05 | NJDOT | 59 | 48 | 65 | 5 | |||||
| Piscataway 1 | NJ | 2026-05-05 02:10 | NJDOT | 60 | 48 | 65 | 6 | |||||
| Piscataway 1 | NJ | 2026-05-04 17:20 | NJDOT | 73 | 37 | 26 | 12 | |||||
| Piscataway 1 | NJ | 2026-05-04 17:10 | NJDOT | 73 | 37 | 27 | 14 | |||||
| Piscataway 1 | NJ | 2026-05-04 05:20 | NJDOT | 45 | 32 | 60 | 0 | |||||
| Piscataway 1 | NJ | 2026-05-04 09:40 | NJDOT | 62 | 39 | 43 | 14 | |||||
| Piscataway 1 | NJ | 2026-05-04 08:35 | NJDOT | 55 | 41 | 58 | 12 | |||||
| Piscataway 1 | NJ | 2026-05-04 08:40 | NJDOT | 56 | 41 | 57 | 10 | |||||
| Piscataway 1 | NJ | 2026-05-04 08:45 | NJDOT | 56 | 41 | 56 | 11 | |||||
| Piscataway 1 | NJ | 2026-05-04 08:50 | NJDOT | 57 | 41 | 54 | 11 | |||||
| Piscataway 1 | NJ | 2026-05-04 09:00 | NJDOT | 59 | 42 | 53 | 7 | |||||
| Piscataway 1 | NJ | 2026-05-04 09:05 | NJDOT | 59 | 40 | 50 | 10 | |||||
| Piscataway 1 | NJ | 2026-05-04 09:10 | NJDOT | 59 | 40 | 47 | 12 | |||||
| Piscataway 1 | NJ | 2026-05-04 09:15 | NJDOT | 59 | 40 | 49 | 13 | |||||
| Piscataway 1 | NJ | 2026-05-04 09:20 | NJDOT | 60 | 40 | 47 | 14 | |||||
| Piscataway 1 | NJ | 2026-05-04 09:25 | NJDOT | 60 | 40 | 46 | 14 | |||||
| Piscataway 1 | NJ | 2026-05-04 09:30 | NJDOT | 61 | 39 | 44 | 11 | |||||
| Piscataway 1 | NJ | 2026-05-04 09:35 | NJDOT | 61 | 39 | 44 | 14 | |||||
| Piscataway 1 | NJ | 2026-05-04 09:45 | NJDOT | 62 | 40 | 43 | 11 | |||||
| Piscataway 1 | NJ | 2026-05-04 08:25 | NJDOT | 55 | 41 | 60 | 10 | |||||
| Piscataway 1 | NJ | 2026-05-04 09:50 | NJDOT | 62 | 38 | 40 | 12 | |||||
| Piscataway 1 | NJ | 2026-05-04 10:00 | NJDOT | 63 | 38 | 40 | 11 | |||||
| Piscataway 1 | NJ | 2026-05-04 10:05 | NJDOT | 63 | 38 | 40 | 11 | |||||
| Piscataway 1 | NJ | 2026-05-04 10:10 | NJDOT | 63 | 39 | 40 | 11 | |||||
| Piscataway 1 | NJ | 2026-05-04 10:15 | NJDOT | 63 | 38 | 39 | 12 | |||||
| Piscataway 1 | NJ | 2026-05-04 10:20 | NJDOT | 63 | 37 | 38 | 14 | |||||
| Piscataway 1 | NJ | 2026-05-04 10:25 | NJDOT | 64 | 38 | 38 | 14 | |||||
| Piscataway 1 | NJ | 2026-05-04 10:30 | NJDOT | 64 | 38 | 38 | 11 | |||||
| Piscataway 1 | NJ | 2026-05-04 10:35 | NJDOT | 64 | 37 | 37 | 12 | |||||
| Piscataway 1 | NJ | 2026-05-04 10:40 | NJDOT | 64 | 37 | 37 | 14 | |||||
| Piscataway 1 | NJ | 2026-05-04 10:45 | NJDOT | 65 | 37 | 36 | 14 | |||||
| Piscataway 1 | NJ | 2026-05-04 10:50 | NJDOT | 65 | 38 | 37 | 15 | |||||
| Piscataway 1 | NJ | 2026-05-04 11:00 | NJDOT | 65 | 37 | 35 | 13 | |||||
| Piscataway 1 | NJ | 2026-05-04 08:30 | NJDOT | 55 | 41 | 58 | 12 | |||||
| Piscataway 1 | NJ | 2026-05-04 08:20 | NJDOT | 54 | 41 | 61 | 10 | |||||
| Piscataway 1 | NJ | 2026-05-04 11:10 | NJDOT | 66 | 36 | 33 | 13 | |||||
| Piscataway 1 | NJ | 2026-05-04 06:40 | NJDOT | 46 | 37 | 72 | 0 | |||||
| Piscataway 1 | NJ | 2026-05-04 05:25 | NJDOT | 45 | 32 | 62 | 0 | |||||
| Piscataway 1 | NJ | 2026-05-04 05:30 | NJDOT | 44 | 33 | 64 | 0 | |||||
| Piscataway 1 | NJ | 2026-05-04 05:35 | NJDOT | 44 | 33 | 65 | 0 | |||||
| Piscataway 1 | NJ | 2026-05-04 05:40 | NJDOT | 44 | 33 | 67 | 0 | |||||
| Piscataway 1 | NJ | 2026-05-04 05:45 | NJDOT | 44 | 33 | 67 | 0 | |||||
| Piscataway 1 | NJ | 2026-05-04 05:50 | NJDOT | 44 | 33 | 67 | 0 | |||||
| Piscataway 1 | NJ | 2026-05-04 06:00 | NJDOT | 44 | 34 | 68 | 0 | |||||
| Piscataway 1 | NJ | 2026-05-04 06:05 | NJDOT | 44 | 34 | 69 | 2 | |||||
| Piscataway 1 | NJ | 2026-05-04 06:10 | NJDOT | 44 | 34 | 70 | 2 | |||||
| Piscataway 1 | NJ | 2026-05-04 06:15 | NJDOT | 44 | 35 | 70 | 2 | |||||
| Piscataway 1 | NJ | 2026-05-04 06:20 | NJDOT | 44 | 35 | 72 | 0 | |||||
| Piscataway 1 | NJ | 2026-05-04 06:25 | NJDOT | 44 | 36 | 72 | 0 | |||||
| Piscataway 1 | NJ | 2026-05-04 06:30 | NJDOT | 45 | 37 | 73 | 0 | |||||
| Piscataway 1 | NJ | 2026-05-04 07:00 | NJDOT | 49 | 38 | 67 | 0 | |||||
| Piscataway 1 | NJ | 2026-05-04 08:15 | NJDOT | 54 | 41 | 61 | 8 | |||||
| Piscataway 1 | NJ | 2026-05-04 07:05 | NJDOT | 49 | 38 | 67 | 0 | |||||
| Piscataway 1 | NJ | 2026-05-04 07:10 | NJDOT | 49 | 39 | 67 | 9 | |||||
| Piscataway 1 | NJ | 2026-05-04 07:15 | NJDOT | 50 | 39 | 66 | 9 | |||||
| Piscataway 1 | NJ | 2026-05-04 07:20 | NJDOT | 50 | 39 | 66 | 6 | |||||
| Piscataway 1 | NJ | 2026-05-04 07:25 | NJDOT | 51 | 40 | 66 | 7 | |||||
| Piscataway 1 | NJ | 2026-05-04 07:30 | NJDOT | 51 | 40 | 66 | 7 | |||||
| Piscataway 1 | NJ | 2026-05-04 07:35 | NJDOT | 51 | 40 | 66 | 9 | |||||
| Piscataway 1 | NJ | 2026-05-04 07:40 | NJDOT | 52 | 40 | 65 | 9 | |||||
| Piscataway 1 | NJ | 2026-05-04 07:45 | NJDOT | 52 | 40 | 64 | 12 | |||||
| Piscataway 1 | NJ | 2026-05-04 07:50 | NJDOT | 52 | 41 | 64 | 13 | |||||
| Piscataway 1 | NJ | 2026-05-04 08:00 | NJDOT | 53 | 41 | 64 | 12 | |||||
| Piscataway 1 | NJ | 2026-05-04 08:05 | NJDOT | 53 | 41 | 62 | 10 | |||||
| Piscataway 1 | NJ | 2026-05-04 08:10 | NJDOT | 54 | 41 | 61 | 10 | |||||
| Piscataway 1 | NJ | 2026-05-04 11:05 | NJDOT | 65 | 38 | 36 | 13 | |||||
| Piscataway 1 | NJ | 2026-05-04 11:15 | NJDOT | 66 | 38 | 35 | 13 | |||||
| Piscataway 1 | NJ | 2026-05-04 17:05 | NJDOT | 75 | 39 | 28 | 14 | |||||
| Piscataway 1 | NJ | 2026-05-04 15:40 | NJDOT | 74 | 37 | 26 | 13 | |||||
| Piscataway 1 | NJ | 2026-05-04 14:35 | NJDOT | 72 | 37 | 27 | 17 | |||||
| Piscataway 1 | NJ | 2026-05-04 14:40 | NJDOT | 73 | 36 | 26 | 17 | |||||
| Piscataway 1 | NJ | 2026-05-04 14:45 | NJDOT | 72 | 38 | 29 | 14 | |||||
| Piscataway 1 | NJ | 2026-05-04 14:50 | NJDOT | 72 | 38 | 29 | 11 | |||||
| Piscataway 1 | NJ | 2026-05-04 15:00 | NJDOT | 73 | 36 | 26 | 13 | |||||
| Piscataway 1 | NJ | 2026-05-04 15:05 | NJDOT | 73 | 38 | 27 | 13 | |||||
| Piscataway 1 | NJ | 2026-05-04 15:10 | NJDOT | 73 | 36 | 26 | 19 | |||||
| Piscataway 1 | NJ | 2026-05-04 15:15 | NJDOT | 73 | 37 | 27 | 19 | |||||
| Piscataway 1 | NJ | 2026-05-04 15:20 | NJDOT | 73 | 36 | 26 | 15 | |||||
| Piscataway 1 | NJ | 2026-05-04 15:25 | NJDOT | 72 | 35 | 25 | 20 | |||||
| Piscataway 1 | NJ | 2026-05-04 15:30 | NJDOT | 74 | 37 | 26 | 20 | |||||
| Piscataway 1 | NJ | 2026-05-04 15:35 | NJDOT | 74 | 38 | 27 | 13 | |||||
| Piscataway 1 | NJ | 2026-05-04 15:45 | NJDOT | 73 | 36 | 25 | 13 | |||||
| Piscataway 1 | NJ | 2026-05-04 14:25 | NJDOT | 72 | 36 | 27 | 14 | |||||
| Piscataway 1 | NJ | 2026-05-04 15:50 | NJDOT | 74 | 37 | 26 | 13 | |||||
| Piscataway 1 | NJ | 2026-05-04 16:00 | NJDOT | 74 | 37 | 25 | 16 | |||||
| Piscataway 1 | NJ | 2026-05-04 16:05 | NJDOT | 73 | 36 | 26 | 16 | |||||
| Piscataway 1 | NJ | 2026-05-04 16:10 | NJDOT | 73 | 36 | 25 | 13 | |||||
| Piscataway 1 | NJ | 2026-05-04 16:15 | NJDOT | 74 | 36 | 27 | 10 | |||||
| Piscataway 1 | NJ | 2026-05-04 16:20 | NJDOT | 75 | 36 | 25 | 9 | |||||
| Piscataway 1 | NJ | 2026-05-04 16:25 | NJDOT | 74 | 37 | 25 | 9 | |||||
| Piscataway 1 | NJ | 2026-05-04 16:30 | NJDOT | 73 | 37 | 26 | 16 | |||||
| Piscataway 1 | NJ | 2026-05-04 16:35 | NJDOT | 74 | 38 | 26 | 16 | |||||
| Piscataway 1 | NJ | 2026-05-04 16:40 | NJDOT | 74 | 38 | 26 | 8 | |||||
| Piscataway 1 | NJ | 2026-05-04 16:45 | NJDOT | 75 | 38 | 26 | 8 | |||||
| Piscataway 1 | NJ | 2026-05-04 16:50 | NJDOT | 73 | 36 | 26 | 17 | |||||
| Piscataway 1 | NJ | 2026-05-04 17:00 | NJDOT | 74 | 37 | 26 | 10 | |||||
| Piscataway 1 | NJ | 2026-05-04 14:30 | NJDOT | 73 | 37 | 27 | 14 | |||||
| Piscataway 1 | NJ | 2026-05-04 14:20 | NJDOT | 72 | 37 | 28 | 15 | |||||
| Piscataway 1 | NJ | 2026-05-04 11:20 | NJDOT | 67 | 37 | 33 | 11 | |||||
| Piscataway 1 | NJ | 2026-05-04 12:35 | NJDOT | 68 | 36 | 31 | 15 | |||||
| Piscataway 1 | NJ | 2026-05-04 11:25 | NJDOT | 66 | 37 | 34 | 10 | |||||
| Piscataway 1 | NJ | 2026-05-04 11:30 | NJDOT | 66 | 36 | 33 | 13 | |||||
| Piscataway 1 | NJ | 2026-05-04 11:35 | NJDOT | 67 | 37 | 32 | 13 | |||||
| Piscataway 1 | NJ | 2026-05-04 11:40 | NJDOT | 67 | 36 | 31 | 11 | |||||
| Piscataway 1 | NJ | 2026-05-04 11:45 | NJDOT | 68 | 37 | 32 | 13 | |||||
| Piscataway 1 | NJ | 2026-05-04 11:50 | NJDOT | 68 | 37 | 31 | 13 | |||||
| Piscataway 1 | NJ | 2026-05-04 12:00 | NJDOT | 67 | 38 | 34 | 13 | |||||
| Piscataway 1 | NJ | 2026-05-04 12:05 | NJDOT | 68 | 36 | 31 | 15 | |||||
| Piscataway 1 | NJ | 2026-05-04 12:10 | NJDOT | 67 | 37 | 32 | 15 | |||||
| Piscataway 1 | NJ | 2026-05-04 12:15 | NJDOT | 68 | 39 | 34 | 11 | |||||
| Piscataway 1 | NJ | 2026-05-04 12:20 | NJDOT | 68 | 35 | 31 | 16 | |||||
| Piscataway 1 | NJ | 2026-05-04 12:25 | NJDOT | 68 | 35 | 30 | 17 | |||||
| Piscataway 1 | NJ | 2026-05-04 12:30 | NJDOT | 69 | 36 | 30 | 17 | |||||
| Piscataway 1 | NJ | 2026-05-04 13:00 | NJDOT | 69 | 37 | 30 | 13 | |||||
| Piscataway 1 | NJ | 2026-05-04 14:15 | NJDOT | 73 | 38 | 28 | 15 | |||||
| Piscataway 1 | NJ | 2026-05-04 13:05 | NJDOT | 69 | 36 | 30 | 14 | |||||
| Piscataway 1 | NJ | 2026-05-04 13:10 | NJDOT | 69 | 36 | 29 | 14 | |||||
| Piscataway 1 | NJ | 2026-05-04 13:15 | NJDOT | 70 | 37 | 29 | 13 | |||||
| Piscataway 1 | NJ | 2026-05-04 13:20 | NJDOT | 70 | 37 | 29 | 13 | |||||
| Piscataway 1 | NJ | 2026-05-04 13:25 | NJDOT | 70 | 36 | 28 | 13 | |||||
| Piscataway 1 | NJ | 2026-05-04 13:30 | NJDOT | 70 | 36 | 28 | 13 | |||||
| Piscataway 1 | NJ | 2026-05-04 13:35 | NJDOT | 71 | 37 | 29 | 18 | |||||
| Piscataway 1 | NJ | 2026-05-04 13:40 | NJDOT | 70 | 37 | 29 | 18 | |||||
| Piscataway 1 | NJ | 2026-05-04 13:45 | NJDOT | 71 | 38 | 29 | 13 | |||||
| Piscataway 1 | NJ | 2026-05-04 13:50 | NJDOT | 71 | 37 | 28 | 14 | |||||
| Piscataway 1 | NJ | 2026-05-04 14:00 | NJDOT | 71 | 37 | 28 | 14 | |||||
| Piscataway 1 | NJ | 2026-05-04 14:05 | NJDOT | 71 | 37 | 28 | 14 | |||||
| Piscataway 1 | NJ | 2026-05-04 14:10 | NJDOT | 71 | 37 | 29 | 14 | |||||
| Piscataway 1 | NJ | 2026-05-05 05:10 | NJDOT | 57 | 50 | 76 | 0 |
data collection created in 0.034912109375 (queried in 0.009414) rendered in: 0.00035810470581055

